Flugplatz Kassel-Calden

Bericht für EDVK

vom 25.02. um 17:20 UTC

Wind 10 kt aus 230°

Sichtweite 10 km oder mehr

gute Sicht, keine Wolken < 5000 ft, keine CB, keine Wettererscheinungen (CAVOK)

Temperatur 6.0°C

Taupunkt -2.0°C

Luftfeuchtigkeit 56%

Luftdruck 996 hPa

EDVK 251720Z 23010KT CAVOK 06/M02 Q0996

Prognose für EDVK

vom 25.02. um 00:00 UTC

Zwischen 00:00 UTC und 00:00 UTC

Wind 12 kt aus 260°

Sichtweite 10 km oder mehr

aufgelockert bewölkt in 3000 ft


Zwischen 00:00 UTC und 00:00 UTC zeitweise

Wind 15 kt aus 270° in Böen 30 kt

Sichtweite 4000 m

Regenschauer

Code: SHGS

aufgebrochene Bewölkung in 1400 ft


Zwischen 00:00 UTC und 00:00 UTC zeitweise mit einer Wahrscheinlichkeit von 30%

Code: TSGS

aufgebrochene Bewölkung in 800 ft


Am 26.02. zwischen 00:00 UTC und 00:00 UTC zeitweise

Wind 15 kt aus 270° in Böen 30 kt

Sichtweite 3000 m

Schneeschauer

Regenschauer

aufgebrochene Bewölkung in 1000 ft


Am 26.02. zwischen 00:00 UTC und 00:00 UTC zeitweise mit einer Wahrscheinlichkeit von 30%

Sichtweite 1500 m

Code: TSSN

aufgebrochene Bewölkung in 400 ft

aufgebrochene Bewölkung in 1000 ft

TAF EDVK 251700Z 2518/2603 26012KT 9999 SCT030 TEMPO 2518/2524 27015G30KT 4000 SHRAGS BKN014CB PROB30 TEMPO 2520/2524 TSGS BKN008CB TEMPO 2600/2603 27015G30KT 3000 SHSNRA BKN010CB PROB30 TEMPO 2600/2603 1500 TSSN BKN004 BKN010CB
Impressum